Time;durP1;ratioP1;P1;durP2;ratioP2;P2;SDS_P1;SDS_P2;PMS_P1;PMS_P2;Temp;Humidity;BMP_temperature;BMP_pressure;BME280_temperature;BME280_humidity;BME280_pressure;Samples;Min_cycle;Max_cycle;Signal;HPM_P1;HPM_P2
2022/08/11 00:00:13;;;;;;;2.40;1.63;;;;;;;18.91;42.92;98997.66;4965679;28;20298;-55
2022/08/11 00:02:43;;;;;;;3.07;1.77;;;;;;;18.86;43.65;98990.28;4963897;28;20229;-53
2022/08/11 00:05:12;;;;;;;1.90;1.50;;;;;;;18.82;43.12;98985.59;4969458;28;20216;-52
2022/08/11 00:07:44;;;;;;;3.93;1.63;;;;;;;18.76;43.77;98991.66;4970178;28;21138;-51
2022/08/11 00:10:14;;;;;;;2.63;1.87;;;;;;;18.71;43.52;98990.41;4969042;28;20562;-52
2022/08/11 00:12:42;;;;;;;2.20;1.50;;;;;;;18.67;43.42;98986.53;4969401;28;20222;-55
2022/08/11 00:15:12;;;;;;;1.90;1.47;;;;;;;18.62;43.84;98982.81;4964736;28;20193;-51
2022/08/11 00:17:39;;;;;;;2.50;1.60;;;;;;;18.56;43.92;98992.34;4965965;28;20539;-54
2022/08/11 00:20:09;;;;;;;2.03;1.60;;;;;;;18.49;43.98;98988.84;4965290;28;20693;-52
2022/08/11 00:22:38;;;;;;;3.20;1.50;;;;;;;18.43;44.57;98991.25;4968119;28;20220;-52
2022/08/11 00:25:10;;;;;;;4.40;1.50;;;;;;;18.37;44.92;98992.03;4966458;28;20195;-53
2022/08/11 00:27:39;;;;;;;2.33;1.77;;;;;;;18.35;44.25;98991.41;4965499;28;20193;-52
2022/08/11 00:30:08;;;;;;;2.50;1.87;;;;;;;18.34;44.97;98989.78;4951238;28;20196;-54
2022/08/11 00:32:38;;;;;;;2.43;1.70;;;;;;;18.35;44.44;98996.69;4965575;28;21070;-53
2022/08/11 00:35:07;;;;;;;5.37;1.80;;;;;;;18.39;44.24;99002.44;4965714;28;21140;-52
2022/08/11 00:37:55;;;;;;;2.10;1.70;;;;;;;18.36;44.43;98998.31;4965107;28;20339;-52
2022/08/11 00:40:26;;;;;;;1.97;1.60;;;;;;;18.31;44.50;99000.72;4966948;28;20287;-55
2022/08/11 00:43:02;;;;;;;2.33;1.50;;;;;;;18.33;43.89;99004.00;4966309;28;20680;-52
2022/08/11 00:45:35;;;;;;;2.10;1.60;;;;;;;18.38;43.80;99001.59;4968279;28;20195;-54
2022/08/11 00:48:11;;;;;;;3.07;1.80;;;;;;;18.39;43.86;99000.59;4969099;28;20268;-54
2022/08/11 00:50:49;;;;;;;3.27;1.63;;;;;;;18.42;44.87;99004.69;4968967;28;20204;-55
2022/08/11 00:53:37;;;;;;;2.10;1.70;;;;;;;18.34;44.62;99002.19;4968647;28;20275;-51
2022/08/11 00:56:36;;;;;;;4.60;1.80;;;;;;;18.34;44.56;99000.34;4968694;28;20210;-55
2022/08/11 01:00:06;;;;;;;5.53;1.70;;;;;;;18.23;45.43;98992.94;4970993;28;20208;-54
2022/08/11 01:02:58;;;;;;;3.30;2.10;;;;;;;18.14;45.79;98994.91;4967955;28;20573;-54
2022/08/11 01:05:45;;;;;;;6.40;1.77;;;;;;;18.19;44.79;98999.59;4969865;28;20739;-52
2022/08/11 01:08:44;;;;;;;5.90;1.73;;;;;;;18.22;45.41;98999.22;4969574;28;20190;-52
2022/08/11 01:11:46;;;;;;;3.37;1.80;;;;;;;18.16;45.40;98995.53;4968041;28;20196;-53
2022/08/11 01:14:55;;;;;;;3.97;1.60;;;;;;;18.12;45.67;98994.28;4968151;28;20266;-53
2022/08/11 01:18:02;;;;;;;3.03;1.57;;;;;;;18.07;45.78;98999.31;4968677;28;20251;-53
2022/08/11 01:21:01;;;;;;;5.50;1.70;;;;;;;18.05;45.90;98996.84;4974270;28;20207;-54
2022/08/11 01:24:31;;;;;;;3.87;1.50;;;;;;;18.04;46.14;99005.78;4958523;28;20234;-52
2022/08/11 01:27:24;;;;;;;2.47;1.90;;;;;;;17.99;46.17;99001.09;4916980;28;20227;-53
2022/08/11 01:30:14;;;;;;;4.10;1.80;;;;;;;18.01;45.44;98990.34;4960364;28;20203;-54
2022/08/11 01:33:19;;;;;;;4.47;1.90;;;;;;;17.98;46.27;98991.50;4968886;28;20278;-54
2022/08/11 01:36:19;;;;;;;5.73;1.93;;;;;;;17.94;46.22;98992.88;4968033;28;20675;-53
2022/08/11 01:39:32;;;;;;;3.50;1.90;;;;;;;17.91;46.50;98989.81;4962984;28;20326;-54
2022/08/11 01:45:31;;;;;;;5.33;2.00;;;;;;;17.91;46.30;98992.47;4959991;28;20226;-55
2022/08/11 01:48:05;;;;;;;5.90;2.10;;;;;;;17.98;46.41;98985.41;4967941;28;20199;-52
2022/08/11 01:50:48;;;;;;;3.43;1.90;;;;;;;17.99;47.02;98994.97;4984611;28;20203;-52
2022/08/11 01:53:30;;;;;;;3.67;1.83;;;;;;;18.07;46.36;98994.84;4967499;28;20226;-52
2022/08/11 01:56:14;;;;;;;1.90;1.63;;;;;;;18.02;46.31;98994.59;4969005;28;20294;-54
2022/08/11 01:58:48;;;;;;;1.93;1.73;;;;;;;18.11;45.77;98990.81;4969326;28;20194;-54
2022/08/11 02:01:32;;;;;;;2.20;1.70;;;;;;;18.10;45.87;98991.81;4967592;28;20258;-52
2022/08/11 02:04:09;;;;;;;2.90;1.90;;;;;;;18.06;46.43;98987.94;4969853;28;20210;-53
2022/08/11 02:06:57;;;;;;;3.50;2.00;;;;;;;18.02;46.69;98991.94;4968244;28;20198;-55
2022/08/11 02:09:42;;;;;;;3.90;1.87;;;;;;;17.97;46.77;98992.50;4967357;28;20227;-53
2022/08/11 02:12:25;;;;;;;2.57;1.73;;;;;;;17.92;46.55;98991.47;4966601;28;20211;-52
2022/08/11 02:15:06;;;;;;;2.47;1.83;;;;;;;17.87;46.89;98989.38;4968617;28;20208;-52
2022/08/11 02:17:43;;;;;;;2.93;1.77;;;;;;;17.82;47.27;98983.84;4967153;28;20265;-51
2022/08/11 02:26:02;;;;;;;3.83;2.03;;;;;;;17.71;47.19;98979.88;4969591;28;20574;-55
2022/08/11 02:28:42;;;;;;;4.07;2.07;;;;;;;17.70;47.53;98981.69;4966170;28;20729;-52
2022/08/11 02:34:14;;;;;;;3.17;1.97;;;;;;;17.64;47.95;98973.72;4971214;28;20682;-54
2022/08/11 02:36:49;;;;;;;4.80;2.30;;;;;;;17.65;47.77;98967.44;4959780;28;20205;-55
2022/08/11 02:39:19;;;;;;;3.87;2.10;;;;;;;17.66;48.00;98963.78;4967719;28;20201;-52
2022/08/11 02:44:50;;;;;;;3.63;2.37;;;;;;;17.65;47.98;98952.41;4953586;28;20206;-55
2022/08/11 02:47:31;;;;;;;4.17;2.00;;;;;;;17.61;48.69;98966.19;4961407;28;20225;-52
2022/08/11 02:50:02;;;;;;;5.03;1.90;;;;;;;17.60;48.56;98970.63;4960877;28;20198;-51
2022/08/11 02:52:36;;;;;;;4.83;2.40;;;;;;;17.62;48.82;98963.34;4968561;28;20749;-53
2022/08/11 02:55:24;;;;;;;5.73;2.20;;;;;;;17.69;48.18;98974.78;4966711;28;20285;-52
2022/08/11 02:57:57;;;;;;;6.37;2.43;;;;;;;17.79;48.74;98965.72;4969293;28;20566;-55
2022/08/11 03:00:30;;;;;;;3.10;2.10;;;;;;;17.81;48.37;98969.84;4966099;28;20481;-53
2022/08/11 03:03:18;;;;;;;3.17;2.33;;;;;;;17.70;48.76;98972.97;4965263;28;20260;-53
2022/08/11 03:06:09;;;;;;;2.60;2.03;;;;;;;17.68;49.28;98974.97;4957034;28;20200;-53
2022/08/11 03:08:50;;;;;;;4.10;2.50;;;;;;;17.58;49.55;98975.28;4959481;28;20693;-53
2022/08/11 03:17:21;;;;;;;3.10;2.17;;;;;;;17.38;50.09;98969.81;4967342;28;20206;-55
2022/08/11 03:19:59;;;;;;;2.67;2.47;;;;;;;17.38;50.40;98978.56;4970864;28;20208;-51
2022/08/11 03:22:36;;;;;;;3.17;2.60;;;;;;;17.46;50.26;98974.97;4967000;28;20684;-54
2022/08/11 03:25:10;;;;;;;3.30;2.50;;;;;;;17.44;50.54;98979.63;4960695;28;20207;-52
2022/08/11 03:27:49;;;;;;;5.30;2.40;;;;;;;17.39;50.18;98980.19;4968610;28;20229;-54
2022/08/11 03:30:19;;;;;;;3.17;2.10;;;;;;;17.34;50.57;98974.66;4966925;28;20289;-55
2022/08/11 03:36:03;;;;;;;4.27;2.50;;;;;;;17.39;50.38;98976.72;4966362;28;20553;-52
2022/08/11 03:38:42;;;;;;;2.57;2.20;;;;;;;17.40;50.17;98986.28;4959715;28;20206;-53
2022/08/11 03:44:18;;;;;;;5.53;2.20;;;;;;;17.44;50.17;98982.25;4966350;28;20573;-54
2022/08/11 03:47:01;;;;;;;5.53;2.53;;;;;;;17.46;50.23;98987.34;4968125;28;20204;-52
2022/08/11 03:49:43;;;;;;;5.87;2.43;;;;;;;17.44;50.43;98981.44;4966793;28;20201;-54
2022/08/11 03:52:18;;;;;;;2.80;2.37;;;;;;;17.66;49.63;98982.28;4966785;28;20214;-51
2022/08/11 03:54:55;;;;;;;4.33;2.53;;;;;;;17.68;49.53;98986.34;4966211;28;20189;-53
2022/08/11 03:57:58;;;;;;;2.57;2.30;;;;;;;17.73;49.72;98985.78;4968605;28;20297;-52
2022/08/11 04:00:58;;;;;;;4.37;2.47;;;;;;;17.64;49.97;98984.28;4968141;28;20226;-51
2022/08/11 04:03:40;;;;;;;3.27;2.40;;;;;;;17.53;50.09;98977.66;4900979;28;20222;-54
2022/08/11 04:06:48;;;;;;;2.73;2.10;;;;;;;17.46;50.33;98974.97;4968395;28;20207;-52
2022/08/11 04:09:48;;;;;;;3.90;2.40;;;;;;;17.36;50.45;98972.66;4966171;28;20202;-51
2022/08/11 04:12:41;;;;;;;3.93;2.43;;;;;;;17.33;50.75;98973.00;4966581;28;20290;-53
2022/08/11 04:19:04;;;;;;;2.70;2.30;;;;;;;17.17;50.88;98975.88;4966218;28;20260;-53
2022/08/11 04:21:58;;;;;;;4.10;2.80;;;;;;;17.14;50.85;98976.25;4970886;28;20248;-53
2022/08/11 04:24:47;;;;;;;4.77;2.30;;;;;;;17.10;51.14;98973.13;4971054;28;20730;-55
2022/08/11 04:27:35;;;;;;;3.00;2.07;;;;;;;17.06;51.10;98967.44;4968825;28;20206;-52
2022/08/11 04:30:08;;;;;;;2.50;2.30;;;;;;;17.10;50.98;98968.69;4968560;28;20994;-52
2022/08/11 04:33:14;;;;;;;5.03;2.43;;;;;;;17.18;50.75;98970.41;4969312;28;20213;-54
2022/08/11 04:35:55;;;;;;;5.50;2.70;;;;;;;17.17;51.04;98971.41;4947709;28;20272;-55
2022/08/11 04:38:44;;;;;;;2.90;2.60;;;;;;;17.15;50.87;98970.75;4969415;28;20201;-55
2022/08/11 04:41:33;;;;;;;3.37;2.20;;;;;;;17.17;50.92;98967.97;4968612;28;20297;-53
2022/08/11 04:44:35;;;;;;;4.30;2.30;;;;;;;17.32;50.77;98973.19;4969327;28;20198;-53
2022/08/11 05:01:39;;;;;;;4.13;2.70;;;;;;;17.40;51.13;98973.91;4969541;28;20692;-54
2022/08/11 05:03:23;;;;;;;5.27;2.37;;;;;;;18.03;48.90;98993.59;4961472;28;20218;-55
2022/08/11 05:06:16;;;;;;;4.50;2.57;;;;;;;18.04;48.93;98997.88;4964016;28;20186;-55
2022/08/11 05:09:24;;;;;;;4.00;2.30;;;;;;;17.98;49.56;98991.50;4965711;28;20677;-53
2022/08/11 05:12:28;;;;;;;5.57;2.43;;;;;;;18.01;49.40;98995.63;4939467;28;20223;-52
2022/08/11 05:34:51;;;;;;;4.07;2.23;;;;;;;18.36;49.57;99000.97;4963297;28;20630;-53
2022/08/11 05:37:23;;;;;;;7.13;2.20;;;;;;;18.31;50.10;98992.78;4969449;28;20211;-51
2022/08/11 05:56:43;;;;;;;8.70;2.67;;;;;;;18.48;49.84;98981.94;4967205;28;20262;-52
2022/08/11 05:59:14;;;;;;;6.93;2.33;;;;;;;18.42;50.09;98986.97;4968773;28;20199;-52
2022/08/11 06:01:44;;;;;;;10.90;2.50;;;;;;;18.44;50.08;98986.81;4968429;28;20683;-52
2022/08/11 06:04:17;;;;;;;12.57;2.40;;;;;;;18.49;50.32;98983.56;4969112;28;20222;-55
2022/08/11 06:06:55;;;;;;;5.70;2.70;;;;;;;18.51;49.45;98986.84;4967661;28;20196;-54
2022/08/11 06:09:28;;;;;;;5.27;2.93;;;;;;;18.55;49.84;98993.38;4967519;28;20562;-54
2022/08/11 06:11:59;;;;;;;3.77;2.67;;;;;;;18.56;49.54;98982.59;4969810;28;20220;-55
2022/08/11 06:14:27;;;;;;;7.17;2.70;;;;;;;18.64;49.18;98986.91;4968545;28;20203;-54
2022/08/11 06:16:58;;;;;;;16.43;2.50;;;;;;;18.74;49.12;98987.38;4967805;28;20208;-55
2022/08/11 06:19:33;;;;;;;9.83;2.60;;;;;;;18.91;48.35;98987.06;4969218;28;20234;-54
2022/08/11 06:22:02;;;;;;;4.13;2.17;;;;;;;18.95;48.64;98988.31;4968604;28;20277;-53
2022/08/11 06:24:31;;;;;;;6.37;2.40;;;;;;;19.08;48.35;98992.06;4966915;28;20208;-53
2022/08/11 06:26:59;;;;;;;5.57;2.20;;;;;;;19.20;47.54;98984.34;4968033;28;20214;-54
2022/08/11 06:29:28;;;;;;;8.77;2.73;;;;;;;19.31;47.44;98981.94;4967318;28;20183;-52
2022/08/11 06:31:58;;;;;;;5.70;2.43;;;;;;;19.40;47.42;98981.75;4966217;28;20230;-53
2022/08/11 06:34:49;;;;;;;4.13;2.13;;;;;;;19.56;47.30;98985.91;4968875;28;20692;-52
2022/08/11 06:37:22;;;;;;;4.33;2.37;;;;;;;19.71;46.65;98983.84;4966170;28;20199;-54
2022/08/11 06:39:59;;;;;;;2.67;2.20;;;;;;;19.94;45.68;98985.34;4967031;28;20203;-53
2022/08/11 06:42:47;;;;;;;2.90;2.30;;;;;;;20.32;44.10;98987.38;4951522;28;20689;-54
2022/08/11 06:45:26;;;;;;;5.47;2.20;;;;;;;20.59;44.07;98986.50;4967264;28;20201;-51
2022/08/11 06:47:59;;;;;;;5.07;2.17;;;;;;;20.83;43.08;98986.91;4966240;28;20190;-52
2022/08/11 06:53:15;;;;;;;3.60;2.20;;;;;;;21.31;42.62;98990.97;4968243;28;20224;-55
2022/08/11 07:01:23;;;;;;;5.03;2.30;;;;;;;22.14;38.26;98988.41;4966122;28;20236;-52
2022/08/11 07:03:57;;;;;;;2.80;1.97;;;;;;;22.34;38.22;98994.38;4967123;28;20216;-54
2022/08/11 07:15:40;;;;;;;7.33;2.27;;;;;;;22.71;36.71;98998.94;4967509;28;20216;-51
2022/08/11 07:15:42;;;;;;;3.10;1.73;;;;;;;23.54;34.47;99001.22;4965511;28;20251;-51
2022/08/11 07:29:45;;;;;;;5.33;2.00;;;;;;;24.01;33.76;99006.69;4964415;28;20251;-52
2022/08/11 07:32:23;;;;;;;3.37;2.03;;;;;;;24.06;34.25;99007.88;4966641;28;20232;-53
2022/08/11 07:34:56;;;;;;;6.37;2.20;;;;;;;24.10;33.80;98998.38;4967888;28;20230;-53
2022/08/11 07:37:28;;;;;;;3.93;1.93;;;;;;;24.18;34.06;99001.50;4962757;28;20221;-52
2022/08/11 07:39:58;;;;;;;3.57;2.20;;;;;;;24.22;34.87;98999.19;4971110;28;20196;-52
2022/08/11 07:42:29;;;;;;;7.07;2.30;;;;;;;24.41;33.36;99001.72;4970810;28;20223;-54
2022/08/11 07:53:15;;;;;;;3.90;2.00;;;;;;;24.76;32.89;98995.56;4966800;28;20251;-51
2022/08/11 07:55:43;;;;;;;5.80;2.13;;;;;;;24.83;33.05;99004.25;4965918;28;20201;-52
2022/08/11 08:17:48;;;;;;;5.15;1.80;;;;;;;25.17;30.65;98987.56;4969493;28;20241;-51
2022/08/11 08:20:37;;;;;;;4.90;1.77;;;;;;;25.22;31.12;98986.84;4973956;28;20784;-53
2022/08/11 08:23:05;;;;;;;3.20;1.65;;;;;;;25.38;30.88;98994.09;4970335;28;20224;-54
2022/08/11 08:25:35;;;;;;;3.60;2.00;;;;;;;25.49;30.35;98995.13;4971555;28;20208;-52
2022/08/11 08:28:06;;;;;;;2.13;1.70;;;;;;;25.54;30.68;99000.56;4971893;28;20208;-53
2022/08/11 08:30:51;;;;;;;7.13;1.87;;;;;;;25.66;29.51;98987.13;4970378;28;20239;-52
2022/08/11 08:33:21;;;;;;;1.60;1.47;;;;;;;25.59;29.45;98992.63;4971677;28;20253;-52
2022/08/11 08:36:10;;;;;;;2.75;1.75;;;;;;;25.71;29.39;98981.88;4970484;28;20205;-51
2022/08/11 08:38:37;;;;;;;4.75;1.98;;;;;;;25.72;29.99;98988.84;4970189;28;20219;-55
2022/08/11 08:41:06;;;;;;;6.40;2.20;;;;;;;25.73;30.30;98998.47;4971505;28;20204;-51
2022/08/11 08:43:35;;;;;;;8.23;2.15;;;;;;;25.79;29.34;99002.84;4971388;28;20762;-52
2022/08/11 08:46:08;;;;;;;3.13;2.10;;;;;;;25.77;29.11;98993.47;4969592;28;20249;-51
2022/08/11 08:48:37;;;;;;;3.53;1.90;;;;;;;25.81;29.28;98986.59;4971794;28;20190;-53
2022/08/11 08:53:57;;;;;;;2.40;1.80;;;;;;;25.98;28.75;98991.09;4970009;28;20213;-53
2022/08/11 08:56:29;;;;;;;2.33;1.83;;;;;;;26.00;28.41;98995.16;4972056;28;20199;-51
2022/08/11 08:58:59;;;;;;;5.45;2.00;;;;;;;26.10;28.42;99002.53;4970831;28;20228;-52
2022/08/11 09:01:29;;;;;;;2.43;2.07;;;;;;;26.19;28.20;98984.25;4970569;28;20240;-54
2022/08/11 09:03:56;;;;;;;5.27;1.90;;;;;;;26.28;28.17;98998.00;4971530;28;20217;-54
2022/08/11 09:06:23;;;;;;;2.88;2.35;;;;;;;26.23;28.07;98991.53;4971782;28;20196;-54
2022/08/11 09:08:50;;;;;;;3.20;1.90;;;;;;;26.26;28.73;98992.91;4974898;28;20665;-51
2022/08/11 09:14:04;;;;;;;3.40;1.85;;;;;;;26.50;27.89;98990.03;4972832;28;20662;-51
2022/08/11 09:16:31;;;;;;;4.22;2.00;;;;;;;26.52;28.18;98990.56;4973533;28;20633;-54
2022/08/11 09:19:00;;;;;;;5.38;1.98;;;;;;;26.52;28.22;98993.25;4974232;28;20297;-53
2022/08/11 09:21:28;;;;;;;2.33;1.80;;;;;;;26.50;28.07;98984.69;4971655;28;20223;-51
2022/08/11 09:26:59;;;;;;;3.92;1.88;;;;;;;26.56;28.30;98977.53;4974804;28;20203;-54
2022/08/11 09:29:29;;;;;;;4.45;2.10;;;;;;;26.66;28.71;98974.97;4974699;28;20208;-52
2022/08/11 09:31:57;;;;;;;3.90;1.90;;;;;;;26.78;27.08;98975.69;4973315;28;20228;-51
2022/08/11 09:34:26;;;;;;;5.57;2.03;;;;;;;26.67;28.02;98981.97;4974831;28;20196;-51
2022/08/11 09:44:45;;;;;;;2.72;1.70;;;;;;;26.81;25.67;98982.38;4951827;28;20236;-53
2022/08/11 09:45:16;;;;;;;5.47;1.60;;;;;;;26.83;26.34;98982.97;4972809;28;20279;-54
2022/08/11 09:47:43;;;;;;;3.07;1.87;;;;;;;26.70;25.89;98975.28;4972802;28;20232;-51
2022/08/11 09:50:11;;;;;;;3.35;1.65;;;;;;;26.77;25.93;98991.97;4974432;28;20196;-52
2022/08/11 09:52:40;;;;;;;3.00;1.83;;;;;;;26.96;26.29;98979.91;4973769;28;20212;-54
2022/08/11 09:55:10;;;;;;;4.93;1.83;;;;;;;26.94;25.65;98979.38;4971501;28;20203;-52
2022/08/11 10:00:39;;;;;;;5.65;1.55;;;;;;;27.11;25.55;98978.47;4951285;29;20270;-51
2022/08/11 10:03:10;;;;;;;4.55;1.80;;;;;;;27.10;24.88;98988.38;4966310;28;20243;-54
2022/08/11 10:08:27;;;;;;;2.67;1.80;;;;;;;27.14;25.23;98967.25;4973996;28;20647;-51
2022/08/11 10:10:56;;;;;;;3.15;1.95;;;;;;;27.15;25.30;98989.50;4973757;28;20204;-53
2022/08/11 10:13:32;;;;;;;2.25;1.80;;;;;;;27.15;25.15;98982.28;4973522;28;20221;-51
2022/08/11 10:16:02;;;;;;;2.53;1.70;;;;;;;27.13;25.00;98981.72;4972144;28;20230;-55
2022/08/11 10:18:48;;;;;;;5.75;1.80;;;;;;;27.06;25.29;98970.38;4972051;28;20202;-54
2022/08/11 10:21:23;;;;;;;3.50;1.65;;;;;;;27.33;24.94;98974.97;4973115;28;20208;-51
2022/08/11 10:26:57;;;;;;;2.40;1.83;;;;;;;27.37;25.17;98970.72;4973789;28;20195;-54
2022/08/11 10:35:01;;;;;;;4.23;1.70;;;;;;;27.52;25.50;98957.47;4973456;28;20197;-52
2022/08/11 10:37:33;;;;;;;3.78;1.88;;;;;;;27.77;25.40;98956.06;4972794;28;20211;-52
2022/08/11 10:40:02;;;;;;;3.37;1.80;;;;;;;27.91;25.03;98952.94;4972539;28;20203;-51
2022/08/11 10:48:02;;;;;;;2.40;1.90;;;;;;;27.92;24.97;98954.56;4971186;28;20240;-51
2022/08/11 10:58:47;;;;;;;3.25;1.90;;;;;;;27.78;25.35;98930.84;4972121;28;20230;-52
2022/08/11 11:01:16;;;;;;;3.65;1.98;;;;;;;27.84;25.07;98932.50;4970851;28;20743;-51
2022/08/11 11:03:45;;;;;;;3.03;1.90;;;;;;;27.98;25.23;98938.25;4973025;28;20566;-55
2022/08/11 11:06:24;;;;;;;3.45;1.65;;;;;;;28.12;24.37;98927.03;4955245;28;20207;-51
2022/08/11 11:08:56;;;;;;;4.85;1.92;;;;;;;28.18;24.93;98926.03;4972849;28;20192;-54
2022/08/11 11:17:54;;;;;;;2.50;1.80;;;;;;;28.36;24.77;98922.13;4972350;28;20220;-53
2022/08/11 11:19:52;;;;;;;2.47;1.83;;;;;;;28.76;24.78;98925.25;4953606;28;20199;-51
2022/08/11 11:22:39;;;;;;;3.10;1.95;;;;;;;28.90;23.69;98917.50;4971240;28;20234;-52
2022/08/11 11:25:22;;;;;;;4.35;2.10;;;;;;;28.88;24.22;98916.94;4972884;28;20576;-52
2022/08/11 11:28:00;;;;;;;4.30;1.90;;;;;;;28.99;24.72;98907.84;4972742;28;20198;-54
2022/08/11 11:30:36;;;;;;;3.38;1.90;;;;;;;28.56;23.57;98924.06;4971005;28;20256;-54
2022/08/11 11:33:11;;;;;;;3.35;2.00;;;;;;;28.45;23.56;98930.47;4972420;28;20226;-52
2022/08/11 11:35:52;;;;;;;5.40;2.08;;;;;;;28.36;23.98;98927.50;4972441;28;20257;-53
2022/08/11 11:38:20;;;;;;;6.30;1.90;;;;;;;28.52;23.65;98912.25;4972040;28;20215;-54
2022/08/11 11:41:23;;;;;;;4.70;1.88;;;;;;;28.31;23.71;98914.03;4972679;28;20212;-52
2022/08/11 11:43:36;;;;;;;3.30;1.83;;;;;;;28.49;24.28;98903.91;4971885;28;20296;-51
2022/08/11 11:46:06;;;;;;;3.72;1.90;;;;;;;28.67;23.34;98908.78;4969892;28;20233;-54
2022/08/11 11:48:35;;;;;;;7.15;2.10;;;;;;;28.80;24.33;98899.47;4972516;28;20789;-52
2022/08/11 11:51:04;;;;;;;2.53;1.90;;;;;;;28.83;22.81;98896.25;4972123;28;20202;-53
2022/08/11 11:53:31;;;;;;;2.35;1.92;;;;;;;28.96;22.92;98910.25;4972504;28;20200;-51
2022/08/11 11:55:59;;;;;;;3.72;2.10;;;;;;;28.85;22.83;98891.44;4972493;28;20214;-54
2022/08/11 12:01:16;;;;;;;2.92;1.80;;;;;;;29.06;22.74;98890.66;4970961;28;20235;-55
2022/08/11 12:03:44;;;;;;;3.85;1.80;;;;;;;28.89;22.73;98891.69;4972284;28;20228;-55
2022/08/11 12:06:13;;;;;;;4.85;1.88;;;;;;;28.99;22.43;98893.63;4972174;28;20591;-55
2022/08/11 12:08:42;;;;;;;2.83;1.60;;;;;;;29.06;22.46;98899.53;4971008;28;20205;-54
2022/08/11 12:13:58;;;;;;;3.70;1.95;;;;;;;29.32;22.62;98883.41;4972095;28;20208;-52
2022/08/11 12:16:26;;;;;;;2.42;1.88;;;;;;;29.15;23.32;98867.56;4970988;28;20224;-52
2022/08/11 12:18:56;;;;;;;4.57;2.28;;;;;;;29.16;23.43;98871.84;4971531;28;20205;-51
2022/08/11 12:21:26;;;;;;;2.75;1.90;;;;;;;29.55;23.11;98867.84;4971300;28;20320;-52
2022/08/11 12:29:27;;;;;;;3.47;2.17;;;;;;;29.30;23.11;98856.81;4969808;28;20578;-53
2022/08/11 12:31:57;;;;;;;4.97;2.45;;;;;;;29.40;22.50;98860.59;4968569;28;20244;-52
2022/08/11 12:34:27;;;;;;;4.28;2.10;;;;;;;29.50;22.61;98849.03;4971326;28;20284;-55
2022/08/11 12:36:58;;;;;;;4.55;2.20;;;;;;;29.54;22.46;98834.78;4955190;28;20210;-52
2022/08/11 12:53:23;;;;;;;4.28;2.13;;;;;;;29.72;22.96;98846.84;4975135;28;20269;-51
2022/08/11 12:58:40;;;;;;;4.47;2.00;;;;;;;29.73;22.92;98834.19;4975581;28;20229;-51
2022/08/11 13:06:50;;;;;;;3.47;2.05;;;;;;;29.72;21.92;98832.56;4974468;28;20197;-53
2022/08/11 13:09:41;;;;;;;4.22;2.00;;;;;;;29.86;22.93;98830.91;4975096;28;20231;-54
2022/08/11 13:15:12;;;;;;;4.10;2.38;;;;;;;30.14;22.32;98820.63;4974546;28;20182;-55
2022/08/11 13:17:40;;;;;;;7.03;2.10;;;;;;;29.98;21.66;98829.81;4970757;28;20316;-52
2022/08/11 13:20:11;;;;;;;2.72;2.03;;;;;;;30.11;22.00;98812.31;4974284;28;20551;-54
2022/08/11 13:22:39;;;;;;;2.42;2.20;;;;;;;29.73;22.25;98802.72;4972950;28;20213;-51
2022/08/11 13:25:09;;;;;;;2.10;1.90;;;;;;;29.73;22.17;98804.59;4975007;28;20273;-53
2022/08/11 13:27:36;;;;;;;2.65;2.10;;;;;;;29.89;22.42;98811.53;4974968;28;20201;-53
2022/08/11 13:32:51;;;;;;;6.00;1.90;;;;;;;30.32;21.55;98807.63;4973484;28;20252;-53
2022/08/11 13:35:18;;;;;;;3.50;1.77;;;;;;;30.41;21.52;98805.97;4974889;28;20198;-54
2022/08/11 13:37:47;;;;;;;5.63;1.88;;;;;;;30.58;21.16;98804.81;4974653;28;20202;-52
2022/08/11 13:40:17;;;;;;;3.42;1.70;;;;;;;30.69;20.85;98809.06;4974699;28;20200;-54
2022/08/11 13:42:44;;;;;;;3.55;2.00;;;;;;;30.49;20.74;98802.69;4973615;28;20214;-52
2022/08/11 13:45:12;;;;;;;3.92;1.83;;;;;;;30.66;20.56;98796.16;4974161;28;20221;-54
2022/08/11 13:47:40;;;;;;;3.63;1.88;;;;;;;30.20;21.46;98783.75;4972235;28;20218;-55
2022/08/11 13:50:08;;;;;;;2.53;1.80;;;;;;;30.40;20.92;98780.13;4972308;28;20569;-53
2022/08/11 13:52:39;;;;;;;6.57;2.00;;;;;;;30.26;21.44;98787.19;4973571;28;20228;-54
2022/08/11 13:55:08;;;;;;;1.80;1.70;;;;;;;30.75;21.91;98777.50;4974269;28;20186;-53
2022/08/11 13:57:39;;;;;;;5.65;1.98;;;;;;;30.72;20.99;98776.19;4972562;28;20204;-53
2022/08/11 14:00:12;;;;;;;2.95;1.95;;;;;;;30.90;20.41;98772.00;4974323;28;20209;-51
2022/08/11 14:02:42;;;;;;;4.93;1.90;;;;;;;30.63;20.78;98777.84;4971520;28;20225;-53
2022/08/11 14:05:14;;;;;;;4.07;2.30;;;;;;;30.71;20.76;98766.47;4974121;28;20610;-55
2022/08/11 14:07:47;;;;;;;1.85;1.60;;;;;;;30.97;20.85;98762.78;4974244;28;20209;-53
2022/08/11 14:10:17;;;;;;;3.80;2.05;;;;;;;31.12;20.66;98767.22;4971068;28;20197;-51
2022/08/11 14:15:36;;;;;;;4.75;1.90;;;;;;;31.04;20.43;98768.63;4972574;28;20190;-53
2022/08/11 14:18:05;;;;;;;3.22;1.90;;;;;;;30.70;20.80;98769.44;4974102;28;20210;-52
2022/08/11 14:23:16;;;;;;;4.35;2.00;;;;;;;30.97;20.40;98755.47;4955851;28;20225;-51
2022/08/11 14:28:33;;;;;;;5.15;1.83;;;;;;;31.51;20.08;98745.53;4972248;28;20205;-55
2022/08/11 14:31:01;;;;;;;4.03;1.80;;;;;;;31.15;20.52;98739.69;4970908;28;20233;-53
2022/08/11 14:33:29;;;;;;;4.07;1.98;;;;;;;30.95;20.50;98752.25;4971957;28;20206;-54
2022/08/11 14:35:56;;;;;;;4.93;1.98;;;;;;;30.97;21.15;98749.28;4973906;28;20665;-52
2022/08/11 14:38:23;;;;;;;2.75;2.20;;;;;;;30.95;20.71;98749.56;4973399;28;20205;-54
2022/08/11 14:49:28;;;;;;;2.67;2.00;;;;;;;31.18;20.49;98739.97;4973549;28;20197;-53
2022/08/11 14:51:57;;;;;;;3.78;2.20;;;;;;;31.25;19.90;98736.91;4972440;28;20217;-52
2022/08/11 14:57:13;;;;;;;2.63;1.58;;;;;;;30.78;20.26;98723.81;4972551;28;20217;-54
2022/08/11 14:59:43;;;;;;;4.70;1.80;;;;;;;31.00;20.15;98730.66;4971655;28;20927;-51
2022/08/11 15:04:58;;;;;;;5.32;1.40;;;;;;;31.52;20.27;98736.34;4961967;28;20565;-51
2022/08/11 15:07:29;;;;;;;2.67;1.70;;;;;;;31.73;19.39;98740.72;4973167;28;20632;-52
2022/08/11 15:09:57;;;;;;;2.95;1.88;;;;;;;31.63;19.08;98730.84;4973260;28;20205;-54
2022/08/11 15:12:24;;;;;;;6.63;1.70;;;;;;;31.80;19.64;98738.50;4958866;28;20236;-51
2022/08/11 15:17:39;;;;;;;3.13;2.08;;;;;;;31.98;18.47;98730.69;4961130;28;20284;-51
2022/08/11 15:26:01;;;;;;;2.50;1.73;;;;;;;31.83;18.99;98726.31;4972379;28;20197;-51
2022/08/11 15:45:46;;;;;;;2.55;1.77;;;;;;;31.77;19.02;98704.78;4954451;28;20702;-54
2022/08/11 15:48:14;;;;;;;3.40;1.65;;;;;;;32.04;18.83;98702.53;4973581;28;20261;-54
2022/08/11 15:50:47;;;;;;;3.97;1.90;;;;;;;32.00;18.60;98707.72;4971939;28;20197;-55
2022/08/11 15:53:32;;;;;;;2.40;1.70;;;;;;;31.71;18.95;98710.53;4971978;28;20228;-53
2022/08/11 15:56:01;;;;;;;2.60;2.03;;;;;;;31.44;18.69;98706.53;4985372;28;20198;-55
2022/08/11 16:04:15;;;;;;;2.10;1.88;;;;;;;31.18;19.21;98704.91;4971686;28;20325;-51
2022/08/11 16:06:48;;;;;;;2.47;1.75;;;;;;;31.68;18.54;98708.41;4971932;28;20193;-55
2022/08/11 16:09:17;;;;;;;6.63;1.60;;;;;;;31.66;18.56;98708.69;4971041;28;20195;-53
2022/08/11 16:11:45;;;;;;;5.15;1.48;;;;;;;31.82;19.90;98700.41;4969169;28;20690;-54
2022/08/11 16:17:01;;;;;;;3.05;1.70;;;;;;;32.21;18.12;98705.53;4974371;28;20282;-53
2022/08/11 16:19:34;;;;;;;2.97;1.80;;;;;;;32.72;18.56;98705.88;4971251;28;20276;-55
2022/08/11 16:22:04;;;;;;;3.05;1.63;;;;;;;32.95;18.23;98703.31;4974395;28;20651;-54
2022/08/11 16:24:32;;;;;;;5.28;1.85;;;;;;;33.09;18.32;98704.16;4975598;28;20214;-53
2022/08/11 16:27:01;;;;;;;4.10;1.60;;;;;;;32.66;17.84;98690.84;4973555;28;20186;-55
2022/08/11 16:29:31;;;;;;;5.20;1.55;;;;;;;31.73;18.57;98706.47;4972827;28;20659;-55
2022/08/11 16:32:17;;;;;;;3.15;1.80;;;;;;;32.09;17.86;98702.47;4973177;28;20311;-55
2022/08/11 16:40:21;;;;;;;2.05;1.60;;;;;;;32.06;17.86;98689.56;4974131;28;20194;-55
2022/08/11 16:48:22;;;;;;;2.63;1.60;;;;;;;32.16;17.76;98691.31;4974946;28;20237;-54
2022/08/11 16:50:50;;;;;;;1.73;1.50;;;;;;;32.25;17.49;98692.25;4975497;28;20194;-53
2022/08/11 16:53:17;;;;;;;5.35;1.77;;;;;;;32.97;16.66;98687.59;4975075;28;20228;-52
2022/08/11 16:55:46;;;;;;;2.28;1.52;;;;;;;34.96;15.13;98690.06;4975426;28;20550;-55
2022/08/11 17:01:01;;;;;;;2.75;1.52;;;;;;;37.36;13.26;98701.47;4971341;28;20717;-53
2022/08/11 17:15:03;;;;;;;4.28;1.75;;;;;;;37.10;13.18;98701.59;4974721;28;20285;-56
2022/08/11 17:17:38;;;;;;;2.38;1.45;;;;;;;37.09;13.03;98703.53;4971896;28;20226;-55